首页
METAR-TAF:

METAR-TAF

机场 :

彼尔姆, 俄罗斯

纬度: 58-00N, 经度: 056-15E, 海拔: 170米

当前天气观测

该预报发布于30分钟前的20:30 UTC
风速10节,风向西南
温度 19°C
湿度 94%
气压 1017 hPa
能见度10公里或以上
少量云层高于3300英尺

METAR: USPP 222030Z 22005MPS 9999 FEW033 19/18 Q1017 R21/090060 TEMPO 1000 BR SCT003 RMK QFE752

时间: 02:00 (21:00 UTC)

预报

该预报发布于1小时和2分钟前的19:58 UTC
预报有效从22日的 21点(UTC)到 23日的 21点(UTC)
风速6节,风向西南,有时为16节阵风
能見度: 3100
散云层高于1100英尺
轻雾
成为
从 23日的 02点(UTC)到 23日的 04点(UTC)
能見度: 8000
多云层高于1600英尺, 积雨云.
小阵雨
成为
从 23日的 06点(UTC)到 23日的 08点(UTC)
风速12节,风向西转西北,有时为27节阵风
成为
从 23日的 15点(UTC)到 23日的 17点(UTC)
能见度10公里或以上
散云层高于1600英尺

TAF: USPP 221958Z 2221/2321 23003G08MPS 3100 BR SCT011 BECMG 2302/2304 8000 -SHRA BKN016CB BECMG 2306/2308 29006G14MPS BECMG 2315/2317 9999 NSW SCT016

超过4000个机场的气象观测和天气预报(METAR&TAF报告)。

可查询的气象台以黄色和红色小点在地图上表示。

将鼠标移到小点上方,可查看气象台名称。

然后点击查看天气观测和预报。

如需切换地图:点击带黑十字的绿色按钮放大地图;点击带横线的绿色按钮缩小地图;或者点击绿色箭头查看邻近地区的地图。


METAR-TAF: